sensor_id;sensor_type;location;lat;lon;timestamp;P1;durP1;ratioP1;P2;durP2;ratioP2
37049;SDS011;22958;51.232;6.826;2023-01-29T00:01:35;119.63;;;45.00;;
37049;SDS011;22958;51.232;6.826;2023-01-29T00:04:00;185.93;;;58.77;;
37049;SDS011;22958;51.232;6.826;2023-01-29T00:06:26;173.70;;;58.83;;
37049;SDS011;22958;51.232;6.826;2023-01-29T00:08:51;166.97;;;54.23;;
37049;SDS011;22958;51.232;6.826;2023-01-29T00:11:17;119.13;;;44.60;;
37049;SDS011;22958;51.232;6.826;2023-01-29T00:13:44;120.50;;;44.10;;
37049;SDS011;22958;51.232;6.826;2023-01-29T00:16:10;121.68;;;45.55;;
37049;SDS011;22958;51.232;6.826;2023-01-29T00:18:39;118.77;;;43.20;;
37049;SDS011;22958;51.232;6.826;2023-01-29T00:21:11;118.15;;;43.40;;
37049;SDS011;22958;51.232;6.826;2023-01-29T00:23:38;103.90;;;41.08;;
37049;SDS011;22958;51.232;6.826;2023-01-29T00:26:03;104.17;;;39.30;;
37049;SDS011;22958;51.232;6.826;2023-01-29T00:28:29;116.32;;;41.58;;
37049;SDS011;22958;51.232;6.826;2023-01-29T00:30:55;109.17;;;43.40;;
37049;SDS011;22958;51.232;6.826;2023-01-29T00:33:20;105.13;;;40.37;;
37049;SDS011;22958;51.232;6.826;2023-01-29T00:35:46;104.63;;;39.33;;
37049;SDS011;22958;51.232;6.826;2023-01-29T00:38:11;111.00;;;40.47;;
37049;SDS011;22958;51.232;6.826;2023-01-29T00:40:37;113.10;;;43.50;;
37049;SDS011;22958;51.232;6.826;2023-01-29T00:43:22;102.88;;;41.78;;
37049;SDS011;22958;51.232;6.826;2023-01-29T00:46:07;111.68;;;42.85;;
37049;SDS011;22958;51.232;6.826;2023-01-29T00:48:33;115.37;;;42.90;;
37049;SDS011;22958;51.232;6.826;2023-01-29T00:50:59;113.70;;;44.17;;
37049;SDS011;22958;51.232;6.826;2023-01-29T00:53:25;109.15;;;41.55;;
37049;SDS011;22958;51.232;6.826;2023-01-29T00:55:51;109.20;;;41.50;;
37049;SDS011;22958;51.232;6.826;2023-01-29T00:58:16;120.10;;;42.20;;
37049;SDS011;22958;51.232;6.826;2023-01-29T01:00:47;98.43;;;39.95;;
37049;SDS011;22958;51.232;6.826;2023-01-29T01:03:13;103.05;;;41.08;;
37049;SDS011;22958;51.232;6.826;2023-01-29T01:05:39;112.22;;;42.13;;
37049;SDS011;22958;51.232;6.826;2023-01-29T01:08:07;108.78;;;41.42;;
37049;SDS011;22958;51.232;6.826;2023-01-29T01:10:57;109.72;;;43.10;;
37049;SDS011;22958;51.232;6.826;2023-01-29T01:13:27;113.13;;;43.13;;
37049;SDS011;22958;51.232;6.826;2023-01-29T01:15:55;111.07;;;41.95;;
37049;SDS011;22958;51.232;6.826;2023-01-29T01:18:20;121.07;;;41.73;;
37049;SDS011;22958;51.232;6.826;2023-01-29T01:20:46;109.23;;;44.63;;
37049;SDS011;22958;51.232;6.826;2023-01-29T01:23:15;106.05;;;42.58;;
37049;SDS011;22958;51.232;6.826;2023-01-29T01:28:07;110.53;;;40.55;;
37049;SDS011;22958;51.232;6.826;2023-01-29T01:30:34;105.95;;;42.40;;
37049;SDS011;22958;51.232;6.826;2023-01-29T01:33:00;114.63;;;42.93;;
37049;SDS011;22958;51.232;6.826;2023-01-29T01:35:25;106.47;;;40.30;;
37049;SDS011;22958;51.232;6.826;2023-01-29T01:37:51;102.13;;;40.87;;
37049;SDS011;22958;51.232;6.826;2023-01-29T01:42:51;109.28;;;42.65;;
37049;SDS011;22958;51.232;6.826;2023-01-29T01:45:21;115.82;;;44.35;;
37049;SDS011;22958;51.232;6.826;2023-01-29T01:47:57;115.57;;;44.15;;
37049;SDS011;22958;51.232;6.826;2023-01-29T01:53:35;111.72;;;42.35;;
37049;SDS011;22958;51.232;6.826;2023-01-29T01:56:10;122.78;;;43.58;;
37049;SDS011;22958;51.232;6.826;2023-01-29T01:58:40;107.57;;;42.53;;
37049;SDS011;22958;51.232;6.826;2023-01-29T02:01:09;112.90;;;43.20;;
37049;SDS011;22958;51.232;6.826;2023-01-29T02:03:37;116.93;;;41.90;;
37049;SDS011;22958;51.232;6.826;2023-01-29T02:06:28;113.07;;;41.17;;
37049;SDS011;22958;51.232;6.826;2023-01-29T02:09:15;103.28;;;41.15;;
37049;SDS011;22958;51.232;6.826;2023-01-29T02:11:59;112.28;;;42.70;;
37049;SDS011;22958;51.232;6.826;2023-01-29T02:14:26;113.80;;;42.53;;
37049;SDS011;22958;51.232;6.826;2023-01-29T02:16:52;111.33;;;42.40;;
37049;SDS011;22958;51.232;6.826;2023-01-29T02:19:23;116.33;;;44.70;;
37049;SDS011;22958;51.232;6.826;2023-01-29T02:25:27;118.65;;;42.22;;
37049;SDS011;22958;51.232;6.826;2023-01-29T02:31:10;111.47;;;42.38;;
37049;SDS011;22958;51.232;6.826;2023-01-29T02:41:36;116.50;;;46.20;;
37049;SDS011;22958;51.232;6.826;2023-01-29T02:44:13;116.80;;;43.35;;
37049;SDS011;22958;51.232;6.826;2023-01-29T02:47:01;112.25;;;42.03;;
37049;SDS011;22958;51.232;6.826;2023-01-29T02:50:18;113.20;;;43.47;;
37049;SDS011;22958;51.232;6.826;2023-01-29T02:52:55;108.40;;;41.23;;
37049;SDS011;22958;51.232;6.826;2023-01-29T02:55:36;116.57;;;45.05;;
37049;SDS011;22958;51.232;6.826;2023-01-29T02:58:12;107.43;;;42.50;;
37049;SDS011;22958;51.232;6.826;2023-01-29T03:00:50;107.93;;;41.67;;
37049;SDS011;22958;51.232;6.826;2023-01-29T03:03:26;101.25;;;40.53;;
37049;SDS011;22958;51.232;6.826;2023-01-29T03:08:33;105.75;;;43.05;;
37049;SDS011;22958;51.232;6.826;2023-01-29T03:11:10;113.47;;;43.90;;
37049;SDS011;22958;51.232;6.826;2023-01-29T03:13:42;111.22;;;43.65;;
37049;SDS011;22958;51.232;6.826;2023-01-29T03:16:38;126.28;;;42.92;;
37049;SDS011;22958;51.232;6.826;2023-01-29T03:19:17;114.03;;;43.08;;
37049;SDS011;22958;51.232;6.826;2023-01-29T03:22:04;114.13;;;43.50;;
37049;SDS011;22958;51.232;6.826;2023-01-29T03:24:43;111.90;;;42.17;;
37049;SDS011;22958;51.232;6.826;2023-01-29T03:27:29;109.53;;;41.67;;
37049;SDS011;22958;51.232;6.826;2023-01-29T03:30:21;111.70;;;42.30;;
37049;SDS011;22958;51.232;6.826;2023-01-29T03:33:08;119.18;;;44.05;;
37049;SDS011;22958;51.232;6.826;2023-01-29T03:35:37;110.20;;;41.22;;
37049;SDS011;22958;51.232;6.826;2023-01-29T03:38:09;110.93;;;42.03;;
37049;SDS011;22958;51.232;6.826;2023-01-29T03:40:46;103.18;;;41.47;;
37049;SDS011;22958;51.232;6.826;2023-01-29T03:43:19;112.75;;;42.35;;
37049;SDS011;22958;51.232;6.826;2023-01-29T03:48:52;115.77;;;42.70;;
37049;SDS011;22958;51.232;6.826;2023-01-29T03:51:32;117.72;;;43.85;;
37049;SDS011;22958;51.232;6.826;2023-01-29T03:54:14;119.35;;;45.40;;
37049;SDS011;22958;51.232;6.826;2023-01-29T03:56:53;104.82;;;40.33;;
37049;SDS011;22958;51.232;6.826;2023-01-29T04:02:12;117.18;;;42.15;;
37049;SDS011;22958;51.232;6.826;2023-01-29T04:04:43;113.03;;;44.58;;
37049;SDS011;22958;51.232;6.826;2023-01-29T04:07:13;111.88;;;43.70;;
37049;SDS011;22958;51.232;6.826;2023-01-29T04:09:45;124.03;;;44.08;;
37049;SDS011;22958;51.232;6.826;2023-01-29T04:12:12;116.28;;;43.85;;
37049;SDS011;22958;51.232;6.826;2023-01-29T04:14:39;119.55;;;45.15;;
37049;SDS011;22958;51.232;6.826;2023-01-29T04:17:07;117.47;;;45.97;;
37049;SDS011;22958;51.232;6.826;2023-01-29T04:19:38;107.22;;;40.85;;
37049;SDS011;22958;51.232;6.826;2023-01-29T04:22:05;116.25;;;45.15;;
37049;SDS011;22958;51.232;6.826;2023-01-29T04:24:37;110.60;;;43.42;;
37049;SDS011;22958;51.232;6.826;2023-01-29T04:27:26;125.85;;;45.25;;
37049;SDS011;22958;51.232;6.826;2023-01-29T04:35:27;111.13;;;41.20;;
37049;SDS011;22958;51.232;6.826;2023-01-29T04:40:35;113.68;;;43.25;;
37049;SDS011;22958;51.232;6.826;2023-01-29T04:43:48;109.03;;;43.05;;
37049;SDS011;22958;51.232;6.826;2023-01-29T04:46:20;120.53;;;43.40;;
37049;SDS011;22958;51.232;6.826;2023-01-29T04:54:17;110.07;;;42.60;;
37049;SDS011;22958;51.232;6.826;2023-01-29T04:56:55;115.60;;;42.50;;
37049;SDS011;22958;51.232;6.826;2023-01-29T04:59:46;107.97;;;41.75;;
37049;SDS011;22958;51.232;6.826;2023-01-29T05:02:17;109.47;;;42.38;;
37049;SDS011;22958;51.232;6.826;2023-01-29T05:04:45;113.32;;;42.47;;
37049;SDS011;22958;51.232;6.826;2023-01-29T05:07:13;109.32;;;42.33;;
37049;SDS011;22958;51.232;6.826;2023-01-29T05:09:39;117.18;;;44.13;;
37049;SDS011;22958;51.232;6.826;2023-01-29T05:12:08;111.85;;;42.95;;
37049;SDS011;22958;51.232;6.826;2023-01-29T05:14:36;108.18;;;41.72;;
37049;SDS011;22958;51.232;6.826;2023-01-29T05:17:07;110.95;;;43.08;;
37049;SDS011;22958;51.232;6.826;2023-01-29T05:19:38;110.35;;;41.75;;
37049;SDS011;22958;51.232;6.826;2023-01-29T05:22:04;113.47;;;42.83;;
37049;SDS011;22958;51.232;6.826;2023-01-29T05:24:31;112.45;;;42.70;;
37049;SDS011;22958;51.232;6.826;2023-01-29T05:26:57;122.23;;;45.37;;
37049;SDS011;22958;51.232;6.826;2023-01-29T05:29:44;110.35;;;43.40;;
37049;SDS011;22958;51.232;6.826;2023-01-29T05:32:11;122.55;;;43.28;;
37049;SDS011;22958;51.232;6.826;2023-01-29T05:34:37;111.78;;;41.17;;
37049;SDS011;22958;51.232;6.826;2023-01-29T05:37:03;114.60;;;45.03;;
37049;SDS011;22958;51.232;6.826;2023-01-29T05:39:29;112.67;;;43.17;;
37049;SDS011;22958;51.232;6.826;2023-01-29T05:41:54;112.07;;;41.47;;
37049;SDS011;22958;51.232;6.826;2023-01-29T05:44:20;124.47;;;45.67;;
37049;SDS011;22958;51.232;6.826;2023-01-29T05:46:45;117.27;;;43.93;;
37049;SDS011;22958;51.232;6.826;2023-01-29T05:49:11;124.33;;;43.03;;
37049;SDS011;22958;51.232;6.826;2023-01-29T05:51:37;113.43;;;43.60;;
37049;SDS011;22958;51.232;6.826;2023-01-29T05:54:02;119.87;;;41.90;;
37049;SDS011;22958;51.232;6.826;2023-01-29T05:56:28;118.53;;;44.73;;
37049;SDS011;22958;51.232;6.826;2023-01-29T05:58:54;114.20;;;42.23;;
37049;SDS011;22958;51.232;6.826;2023-01-29T06:01:21;111.13;;;41.60;;
37049;SDS011;22958;51.232;6.826;2023-01-29T06:03:48;115.22;;;41.90;;
37049;SDS011;22958;51.232;6.826;2023-01-29T06:06:14;111.33;;;42.93;;
37049;SDS011;22958;51.232;6.826;2023-01-29T06:08:40;110.07;;;42.60;;
37049;SDS011;22958;51.232;6.826;2023-01-29T06:11:06;108.30;;;40.47;;
37049;SDS011;22958;51.232;6.826;2023-01-29T06:13:33;114.05;;;42.03;;
37049;SDS011;22958;51.232;6.826;2023-01-29T06:15:58;108.53;;;41.80;;
37049;SDS011;22958;51.232;6.826;2023-01-29T06:18:24;114.60;;;42.83;;
37049;SDS011;22958;51.232;6.826;2023-01-29T06:20:49;112.97;;;42.67;;
37049;SDS011;22958;51.232;6.826;2023-01-29T06:23:15;113.77;;;41.97;;
37049;SDS011;22958;51.232;6.826;2023-01-29T06:25:40;108.63;;;43.03;;
37049;SDS011;22958;51.232;6.826;2023-01-29T06:28:06;120.73;;;42.70;;
37049;SDS011;22958;51.232;6.826;2023-01-29T06:30:31;107.33;;;41.33;;
37049;SDS011;22958;51.232;6.826;2023-01-29T06:32:57;113.00;;;42.93;;
37049;SDS011;22958;51.232;6.826;2023-01-29T06:35:26;125.88;;;44.25;;
37049;SDS011;22958;51.232;6.826;2023-01-29T06:37:52;113.40;;;43.42;;
37049;SDS011;22958;51.232;6.826;2023-01-29T06:40:17;101.77;;;40.50;;
37049;SDS011;22958;51.232;6.826;2023-01-29T06:42:43;106.07;;;41.47;;
37049;SDS011;22958;51.232;6.826;2023-01-29T06:45:09;109.20;;;42.57;;
37049;SDS011;22958;51.232;6.826;2023-01-29T06:47:34;112.00;;;41.35;;
37049;SDS011;22958;51.232;6.826;2023-01-29T06:50:00;107.67;;;41.90;;
37049;SDS011;22958;51.232;6.826;2023-01-29T06:52:26;109.97;;;40.43;;
37049;SDS011;22958;51.232;6.826;2023-01-29T06:54:53;110.13;;;42.55;;
37049;SDS011;22958;51.232;6.826;2023-01-29T06:57:18;109.93;;;39.90;;
37049;SDS011;22958;51.232;6.826;2023-01-29T06:59:44;110.17;;;41.60;;
37049;SDS011;22958;51.232;6.826;2023-01-29T07:02:10;106.53;;;41.13;;
37049;SDS011;22958;51.232;6.826;2023-01-29T07:04:35;105.07;;;41.30;;
37049;SDS011;22958;51.232;6.826;2023-01-29T07:07:01;110.55;;;41.90;;
37049;SDS011;22958;51.232;6.826;2023-01-29T07:09:27;108.53;;;42.33;;
37049;SDS011;22958;51.232;6.826;2023-01-29T07:11:53;110.30;;;42.00;;
37049;SDS011;22958;51.232;6.826;2023-01-29T07:14:18;113.33;;;42.03;;
37049;SDS011;22958;51.232;6.826;2023-01-29T07:16:44;111.20;;;42.13;;
37049;SDS011;22958;51.232;6.826;2023-01-29T07:19:09;109.23;;;42.20;;
37049;SDS011;22958;51.232;6.826;2023-01-29T07:21:35;123.70;;;44.80;;
37049;SDS011;22958;51.232;6.826;2023-01-29T07:24:01;117.60;;;43.85;;
37049;SDS011;22958;51.232;6.826;2023-01-29T07:26:27;118.57;;;45.80;;
37049;SDS011;22958;51.232;6.826;2023-01-29T07:28:52;109.00;;;41.97;;
37049;SDS011;22958;51.232;6.826;2023-01-29T07:31:18;119.97;;;44.30;;
37049;SDS011;22958;51.232;6.826;2023-01-29T07:33:44;110.23;;;40.63;;
37049;SDS011;22958;51.232;6.826;2023-01-29T07:36:10;126.13;;;44.70;;
37049;SDS011;22958;51.232;6.826;2023-01-29T07:38:36;112.10;;;42.80;;
37049;SDS011;22958;51.232;6.826;2023-01-29T07:41:02;117.97;;;45.20;;
37049;SDS011;22958;51.232;6.826;2023-01-29T07:43:27;123.90;;;45.07;;
37049;SDS011;22958;51.232;6.826;2023-01-29T07:45:54;133.23;;;45.53;;
37049;SDS011;22958;51.232;6.826;2023-01-29T07:48:19;122.23;;;46.20;;
37049;SDS011;22958;51.232;6.826;2023-01-29T07:50:52;126.67;;;45.37;;
37049;SDS011;22958;51.232;6.826;2023-01-29T07:53:19;121.35;;;43.92;;
37049;SDS011;22958;51.232;6.826;2023-01-29T07:55:45;122.63;;;46.27;;
37049;SDS011;22958;51.232;6.826;2023-01-29T07:58:10;113.50;;;43.13;;
37049;SDS011;22958;51.232;6.826;2023-01-29T08:00:36;115.40;;;43.90;;
37049;SDS011;22958;51.232;6.826;2023-01-29T08:03:06;114.60;;;44.40;;
37049;SDS011;22958;51.232;6.826;2023-01-29T08:05:34;115.97;;;43.35;;
37049;SDS011;22958;51.232;6.826;2023-01-29T08:08:00;111.93;;;43.07;;
37049;SDS011;22958;51.232;6.826;2023-01-29T08:10:25;124.63;;;43.67;;
37049;SDS011;22958;51.232;6.826;2023-01-29T08:12:56;120.55;;;44.67;;
37049;SDS011;22958;51.232;6.826;2023-01-29T08:15:22;116.38;;;43.95;;
37049;SDS011;22958;51.232;6.826;2023-01-29T08:17:48;121.45;;;44.78;;
37049;SDS011;22958;51.232;6.826;2023-01-29T08:20:14;115.43;;;42.90;;
37049;SDS011;22958;51.232;6.826;2023-01-29T08:22:40;114.50;;;43.53;;
37049;SDS011;22958;51.232;6.826;2023-01-29T08:25:06;115.33;;;42.17;;
37049;SDS011;22958;51.232;6.826;2023-01-29T08:27:32;117.50;;;44.50;;
37049;SDS011;22958;51.232;6.826;2023-01-29T08:29:58;110.70;;;42.53;;
37049;SDS011;22958;51.232;6.826;2023-01-29T08:32:23;115.70;;;44.77;;
37049;SDS011;22958;51.232;6.826;2023-01-29T08:34:49;113.00;;;41.37;;
37049;SDS011;22958;51.232;6.826;2023-01-29T08:37:14;109.93;;;40.83;;
37049;SDS011;22958;51.232;6.826;2023-01-29T08:39:40;110.47;;;42.10;;
37049;SDS011;22958;51.232;6.826;2023-01-29T08:42:06;110.07;;;42.17;;
37049;SDS011;22958;51.232;6.826;2023-01-29T08:44:31;113.00;;;41.50;;
37049;SDS011;22958;51.232;6.826;2023-01-29T08:46:56;110.47;;;43.60;;
37049;SDS011;22958;51.232;6.826;2023-01-29T08:49:22;107.77;;;40.90;;
37049;SDS011;22958;51.232;6.826;2023-01-29T08:51:48;112.28;;;43.10;;
37049;SDS011;22958;51.232;6.826;2023-01-29T08:54:15;111.97;;;43.40;;
37049;SDS011;22958;51.232;6.826;2023-01-29T08:56:41;117.57;;;44.17;;
37049;SDS011;22958;51.232;6.826;2023-01-29T08:59:08;121.70;;;42.90;;
37049;SDS011;22958;51.232;6.826;2023-01-29T09:01:34;116.50;;;44.95;;
37049;SDS011;22958;51.232;6.826;2023-01-29T09:03:59;122.67;;;44.60;;
37049;SDS011;22958;51.232;6.826;2023-01-29T09:06:25;112.10;;;41.83;;
37049;SDS011;22958;51.232;6.826;2023-01-29T09:08:51;116.27;;;42.43;;
37049;SDS011;22958;51.232;6.826;2023-01-29T09:11:16;120.03;;;44.00;;
37049;SDS011;22958;51.232;6.826;2023-01-29T09:13:42;117.77;;;43.43;;
37049;SDS011;22958;51.232;6.826;2023-01-29T09:16:07;117.67;;;43.73;;
37049;SDS011;22958;51.232;6.826;2023-01-29T09:18:33;116.90;;;42.33;;
37049;SDS011;22958;51.232;6.826;2023-01-29T09:20:59;118.30;;;42.67;;
37049;SDS011;22958;51.232;6.826;2023-01-29T09:23:26;113.13;;;44.17;;
37049;SDS011;22958;51.232;6.826;2023-01-29T09:25:52;113.32;;;43.55;;
37049;SDS011;22958;51.232;6.826;2023-01-29T09:28:18;109.37;;;41.53;;
37049;SDS011;22958;51.232;6.826;2023-01-29T09:30:43;112.40;;;39.70;;
37049;SDS011;22958;51.232;6.826;2023-01-29T09:33:09;106.47;;;41.40;;
37049;SDS011;22958;51.232;6.826;2023-01-29T09:35:35;99.57;;;39.17;;
37049;SDS011;22958;51.232;6.826;2023-01-29T09:38:00;114.53;;;42.83;;
37049;SDS011;22958;51.232;6.826;2023-01-29T09:43:39;106.78;;;38.47;;
37049;SDS011;22958;51.232;6.826;2023-01-29T09:46:14;108.10;;;40.00;;
37049;SDS011;22958;51.232;6.826;2023-01-29T09:49:02;107.13;;;40.33;;
37049;SDS011;22958;51.232;6.826;2023-01-29T09:51:39;100.93;;;40.00;;
37049;SDS011;22958;51.232;6.826;2023-01-29T09:54:23;107.95;;;41.90;;
37049;SDS011;22958;51.232;6.826;2023-01-29T09:56:54;100.85;;;38.97;;
37049;SDS011;22958;51.232;6.826;2023-01-29T09:59:22;109.30;;;41.38;;
37049;SDS011;22958;51.232;6.826;2023-01-29T10:01:53;102.82;;;40.70;;
37049;SDS011;22958;51.232;6.826;2023-01-29T10:23:49;104.68;;;39.80;;
37049;SDS011;22958;51.232;6.826;2023-01-29T10:26:22;100.90;;;37.08;;
37049;SDS011;22958;51.232;6.826;2023-01-29T10:28:50;100.00;;;38.13;;
37049;SDS011;22958;51.232;6.826;2023-01-29T10:31:20;101.65;;;38.63;;
37049;SDS011;22958;51.232;6.826;2023-01-29T10:33:59;102.78;;;39.40;;
37049;SDS011;22958;51.232;6.826;2023-01-29T10:39:08;107.55;;;40.70;;
37049;SDS011;22958;51.232;6.826;2023-01-29T10:47:44;96.53;;;37.95;;
37049;SDS011;22958;51.232;6.826;2023-01-29T10:50:43;97.05;;;36.90;;
37049;SDS011;22958;51.232;6.826;2023-01-29T10:56:04;105.07;;;39.88;;
37049;SDS011;22958;51.232;6.826;2023-01-29T11:01:15;101.90;;;38.95;;
37049;SDS011;22958;51.232;6.826;2023-01-29T11:03:40;94.60;;;37.00;;
37049;SDS011;22958;51.232;6.826;2023-01-29T11:14:24;99.75;;;36.15;;
37049;SDS011;22958;51.232;6.826;2023-01-29T11:16:53;104.80;;;37.63;;
37049;SDS011;22958;51.232;6.826;2023-01-29T11:19:36;116.50;;;40.72;;
37049;SDS011;22958;51.232;6.826;2023-01-29T11:22:02;103.13;;;38.45;;
37049;SDS011;22958;51.232;6.826;2023-01-29T11:24:28;101.50;;;36.07;;
37049;SDS011;22958;51.232;6.826;2023-01-29T11:26:55;97.97;;;35.83;;
37049;SDS011;22958;51.232;6.826;2023-01-29T11:29:37;106.75;;;39.20;;
37049;SDS011;22958;51.232;6.826;2023-01-29T11:32:07;109.13;;;37.85;;
37049;SDS011;22958;51.232;6.826;2023-01-29T11:37:23;103.38;;;37.42;;
37049;SDS011;22958;51.232;6.826;2023-01-29T11:40:27;109.78;;;40.47;;
37049;SDS011;22958;51.232;6.826;2023-01-29T11:43:11;104.18;;;38.60;;
37049;SDS011;22958;51.232;6.826;2023-01-29T11:45:40;112.53;;;38.33;;
37049;SDS011;22958;51.232;6.826;2023-01-29T11:48:11;111.60;;;40.37;;
37049;SDS011;22958;51.232;6.826;2023-01-29T11:50:39;109.05;;;39.33;;
37049;SDS011;22958;51.232;6.826;2023-01-29T11:53:04;100.07;;;36.27;;
37049;SDS011;22958;51.232;6.826;2023-01-29T11:55:32;101.20;;;37.72;;
37049;SDS011;22958;51.232;6.826;2023-01-29T11:58:01;101.47;;;37.17;;
37049;SDS011;22958;51.232;6.826;2023-01-29T12:00:36;102.70;;;39.97;;
37049;SDS011;22958;51.232;6.826;2023-01-29T12:03:14;101.57;;;36.83;;
37049;SDS011;22958;51.232;6.826;2023-01-29T12:05:41;108.40;;;37.40;;
37049;SDS011;22958;51.232;6.826;2023-01-29T12:08:19;109.30;;;37.05;;
37049;SDS011;22958;51.232;6.826;2023-01-29T12:10:47;104.93;;;37.15;;
37049;SDS011;22958;51.232;6.826;2023-01-29T12:15:44;101.00;;;34.60;;
37049;SDS011;22958;51.232;6.826;2023-01-29T12:21:19;106.85;;;39.38;;
37049;SDS011;22958;51.232;6.826;2023-01-29T12:26:52;100.13;;;36.67;;
37049;SDS011;22958;51.232;6.826;2023-01-29T12:29:32;103.63;;;39.05;;
37049;SDS011;22958;51.232;6.826;2023-01-29T12:34:58;104.07;;;38.72;;
37049;SDS011;22958;51.232;6.826;2023-01-29T12:42:40;99.22;;;37.13;;
37049;SDS011;22958;51.232;6.826;2023-01-29T12:45:09;100.35;;;38.92;;
37049;SDS011;22958;51.232;6.826;2023-01-29T12:47:48;100.03;;;38.00;;
37049;SDS011;22958;51.232;6.826;2023-01-29T12:50:27;119.45;;;40.45;;
37049;SDS011;22958;51.232;6.826;2023-01-29T12:53:30;104.05;;;40.30;;
37049;SDS011;22958;51.232;6.826;2023-01-29T12:55:56;114.13;;;40.53;;
37049;SDS011;22958;51.232;6.826;2023-01-29T12:58:44;100.38;;;37.67;;
37049;SDS011;22958;51.232;6.826;2023-01-29T13:01:19;100.45;;;37.72;;
37049;SDS011;22958;51.232;6.826;2023-01-29T13:03:54;100.22;;;37.15;;
37049;SDS011;22958;51.232;6.826;2023-01-29T13:06:37;115.30;;;40.58;;
37049;SDS011;22958;51.232;6.826;2023-01-29T13:09:10;109.88;;;40.13;;
37049;SDS011;22958;51.232;6.826;2023-01-29T13:14:32;103.18;;;38.10;;
37049;SDS011;22958;51.232;6.826;2023-01-29T13:17:12;92.25;;;37.22;;
37049;SDS011;22958;51.232;6.826;2023-01-29T13:19:44;100.80;;;38.90;;
37049;SDS011;22958;51.232;6.826;2023-01-29T13:22:35;99.82;;;36.28;;
37049;SDS011;22958;51.232;6.826;2023-01-29T13:25:02;99.25;;;38.03;;
37049;SDS011;22958;51.232;6.826;2023-01-29T13:27:28;110.10;;;38.08;;
37049;SDS011;22958;51.232;6.826;2023-01-29T13:29:56;104.07;;;36.13;;
37049;SDS011;22958;51.232;6.826;2023-01-29T13:32:23;107.63;;;39.70;;
37049;SDS011;22958;51.232;6.826;2023-01-29T13:34:51;95.75;;;36.78;;
37049;SDS011;22958;51.232;6.826;2023-01-29T13:37:28;101.60;;;36.75;;
37049;SDS011;22958;51.232;6.826;2023-01-29T13:39:57;104.60;;;38.28;;
37049;SDS011;22958;51.232;6.826;2023-01-29T13:42:25;103.55;;;37.75;;
37049;SDS011;22958;51.232;6.826;2023-01-29T13:45:04;95.97;;;36.38;;
37049;SDS011;22958;51.232;6.826;2023-01-29T13:47:32;96.97;;;37.00;;
37049;SDS011;22958;51.232;6.826;2023-01-29T13:50:05;102.13;;;37.30;;
37049;SDS011;22958;51.232;6.826;2023-01-29T13:52:54;100.65;;;37.65;;
37049;SDS011;22958;51.232;6.826;2023-01-29T13:55:32;95.10;;;36.75;;
37049;SDS011;22958;51.232;6.826;2023-01-29T13:58:03;98.55;;;34.67;;
37049;SDS011;22958;51.232;6.826;2023-01-29T14:08:05;94.13;;;35.28;;
37049;SDS011;22958;51.232;6.826;2023-01-29T14:13:46;91.53;;;33.95;;
37049;SDS011;22958;51.232;6.826;2023-01-29T14:18:50;92.60;;;34.63;;
37049;SDS011;22958;51.232;6.826;2023-01-29T14:21:22;91.45;;;34.20;;
37049;SDS011;22958;51.232;6.826;2023-01-29T14:23:53;91.40;;;35.10;;
37049;SDS011;22958;51.232;6.826;2023-01-29T14:29:13;92.53;;;35.43;;
37049;SDS011;22958;51.232;6.826;2023-01-29T14:31:40;86.63;;;34.15;;
37049;SDS011;22958;51.232;6.826;2023-01-29T14:34:51;90.18;;;35.08;;
37049;SDS011;22958;51.232;6.826;2023-01-29T14:39:46;95.35;;;36.13;;
37049;SDS011;22958;51.232;6.826;2023-01-29T14:50:49;100.07;;;35.73;;
37049;SDS011;22958;51.232;6.826;2023-01-29T14:52:52;99.47;;;36.90;;
37049;SDS011;22958;51.232;6.826;2023-01-29T14:57:59;81.95;;;31.77;;
37049;SDS011;22958;51.232;6.826;2023-01-29T15:00:26;91.90;;;34.60;;
37049;SDS011;22958;51.232;6.826;2023-01-29T15:02:53;92.90;;;33.78;;
37049;SDS011;22958;51.232;6.826;2023-01-29T15:05:22;89.07;;;34.63;;
37049;SDS011;22958;51.232;6.826;2023-01-29T15:07:54;87.60;;;31.35;;
37049;SDS011;22958;51.232;6.826;2023-01-29T15:13:37;83.40;;;32.08;;
37049;SDS011;22958;51.232;6.826;2023-01-29T15:16:42;108.93;;;33.40;;
37049;SDS011;22958;51.232;6.826;2023-01-29T15:19:16;84.00;;;31.70;;
37049;SDS011;22958;51.232;6.826;2023-01-29T15:22:07;88.35;;;31.73;;
37049;SDS011;22958;51.232;6.826;2023-01-29T15:24:37;81.82;;;29.42;;
37049;SDS011;22958;51.232;6.826;2023-01-29T15:27:05;85.88;;;31.17;;
37049;SDS011;22958;51.232;6.826;2023-01-29T15:29:36;75.55;;;28.83;;
37049;SDS011;22958;51.232;6.826;2023-01-29T15:32:03;81.57;;;28.00;;
37049;SDS011;22958;51.232;6.826;2023-01-29T15:34:29;74.87;;;27.20;;
37049;SDS011;22958;51.232;6.826;2023-01-29T15:36:54;71.23;;;27.07;;
37049;SDS011;22958;51.232;6.826;2023-01-29T15:39:21;75.60;;;27.50;;
37049;SDS011;22958;51.232;6.826;2023-01-29T15:41:48;65.90;;;26.20;;
37049;SDS011;22958;51.232;6.826;2023-01-29T15:44:24;72.60;;;27.60;;
37049;SDS011;22958;51.232;6.826;2023-01-29T15:46:51;65.38;;;24.85;;
37049;SDS011;22958;51.232;6.826;2023-01-29T15:49:33;61.80;;;24.50;;
37049;SDS011;22958;51.232;6.826;2023-01-29T15:52:00;65.78;;;22.90;;
37049;SDS011;22958;51.232;6.826;2023-01-29T15:54:29;68.05;;;25.05;;
37049;SDS011;22958;51.232;6.826;2023-01-29T15:56:57;72.25;;;27.10;;
37049;SDS011;22958;51.232;6.826;2023-01-29T15:59:25;83.75;;;28.80;;
37049;SDS011;22958;51.232;6.826;2023-01-29T16:01:58;54.45;;;22.08;;
37049;SDS011;22958;51.232;6.826;2023-01-29T16:04:42;62.50;;;23.02;;
37049;SDS011;22958;51.232;6.826;2023-01-29T16:07:09;54.60;;;20.33;;
37049;SDS011;22958;51.232;6.826;2023-01-29T16:09:35;60.10;;;21.97;;
37049;SDS011;22958;51.232;6.826;2023-01-29T16:12:01;56.87;;;21.17;;
37049;SDS011;22958;51.232;6.826;2023-01-29T16:14:27;69.27;;;22.77;;
37049;SDS011;22958;51.232;6.826;2023-01-29T16:19:20;71.80;;;24.23;;
37049;SDS011;22958;51.232;6.826;2023-01-29T16:24:23;62.72;;;21.95;;
37049;SDS011;22958;51.232;6.826;2023-01-29T16:26:50;61.75;;;20.80;;
37049;SDS011;22958;51.232;6.826;2023-01-29T16:29:26;66.35;;;23.55;;
37049;SDS011;22958;51.232;6.826;2023-01-29T16:31:55;59.10;;;20.65;;
37049;SDS011;22958;51.232;6.826;2023-01-29T16:34:26;56.88;;;20.90;;
37049;SDS011;22958;51.232;6.826;2023-01-29T16:36:55;55.55;;;21.17;;
37049;SDS011;22958;51.232;6.826;2023-01-29T16:39:31;62.35;;;21.50;;
37049;SDS011;22958;51.232;6.826;2023-01-29T16:42:22;54.53;;;21.70;;
37049;SDS011;22958;51.232;6.826;2023-01-29T16:47:28;65.40;;;23.13;;
37049;SDS011;22958;51.232;6.826;2023-01-29T16:52:53;59.03;;;21.92;;
37049;SDS011;22958;51.232;6.826;2023-01-29T16:55:42;58.00;;;21.48;;
37049;SDS011;22958;51.232;6.826;2023-01-29T16:58:18;60.33;;;22.52;;
37049;SDS011;22958;51.232;6.826;2023-01-29T17:00:49;54.83;;;22.05;;
37049;SDS011;22958;51.232;6.826;2023-01-29T17:03:19;57.28;;;22.52;;
37049;SDS011;22958;51.232;6.826;2023-01-29T17:05:45;57.05;;;21.50;;
37049;SDS011;22958;51.232;6.826;2023-01-29T17:08:16;58.50;;;22.15;;